Time;durP1;ratioP1;P1;durP2;ratioP2;P2;SDS_P1;SDS_P2;PMS_P1;PMS_P2;Temp;Humidity;BMP_temperature;BMP_pressure;BME280_temperature;BME280_humidity;BME280_pressure;Samples;Min_cycle;Max_cycle;Signal;HPM_P1;HPM_P2
2023/10/31 00:00:18;;;;;;;0.47;0.43;;;;;;;12.13;100.00;99214.84;5055821;28;20454;-66
2023/10/31 00:02:44;;;;;;;0.60;0.55;;;;;;;12.12;100.00;99229.53;5057395;28;20051;-65
2023/10/31 00:05:09;;;;;;;0.60;0.50;;;;;;;12.14;100.00;99232.09;5058921;28;20037;-65
2023/10/31 00:07:34;;;;;;;0.55;0.55;;;;;;;12.16;100.00;99228.53;5054351;28;20551;-65
2023/10/31 00:10:00;;;;;;;0.68;0.60;;;;;;;12.17;100.00;99230.19;5055142;28;20085;-65
2023/10/31 00:12:26;;;;;;;0.93;0.60;;;;;;;12.19;100.00;99235.31;5059065;28;20037;-65
2023/10/31 00:14:51;;;;;;;0.40;0.40;;;;;;;12.21;100.00;99238.69;5057694;28;20043;-65
2023/10/31 00:17:17;;;;;;;1.92;0.55;;;;;;;12.22;100.00;99241.25;5058251;28;20546;-65
2023/10/31 00:19:42;;;;;;;0.77;0.63;;;;;;;12.26;100.00;99250.56;5052391;28;20191;-65
2023/10/31 00:22:07;;;;;;;1.45;0.63;;;;;;;12.27;100.00;99246.22;5057832;28;20665;-65
2023/10/31 00:24:33;;;;;;;1.25;0.80;;;;;;;12.28;100.00;99241.00;5056886;28;20071;-65
2023/10/31 00:26:58;;;;;;;0.90;0.70;;;;;;;12.33;100.00;99249.41;5051525;28;20511;-65
2023/10/31 00:29:24;;;;;;;1.30;0.95;;;;;;;12.32;100.00;99250.31;5064435;28;20067;-65
2023/10/31 00:31:49;;;;;;;1.30;1.00;;;;;;;12.29;100.00;99253.03;5059712;28;20039;-65
2023/10/31 00:34:15;;;;;;;0.90;0.80;;;;;;;12.29;100.00;99258.22;5054505;28;20150;-66
2023/10/31 00:36:40;;;;;;;2.00;1.00;;;;;;;12.25;100.00;99259.25;5057003;28;20120;-67
2023/10/31 00:39:05;;;;;;;1.58;1.00;;;;;;;12.26;100.00;99254.88;5059552;28;20044;-65
2023/10/31 00:41:31;;;;;;;0.90;0.75;;;;;;;12.26;100.00;99260.06;5049611;28;20040;-65
2023/10/31 00:43:56;;;;;;;1.50;0.98;;;;;;;12.21;100.00;99267.19;5058626;28;20080;-65
2023/10/31 00:46:21;;;;;;;1.77;0.90;;;;;;;12.19;100.00;99274.19;5053966;28;20118;-65
2023/10/31 00:48:47;;;;;;;0.93;0.70;;;;;;;12.19;100.00;99277.63;5053058;28;20051;-66
2023/10/31 00:51:12;;;;;;;1.45;0.70;;;;;;;12.16;100.00;99298.47;5063719;28;20036;-66
2023/10/31 00:53:38;;;;;;;0.68;0.65;;;;;;;12.17;100.00;99284.59;5020572;28;20028;-65
2023/10/31 00:56:03;;;;;;;0.80;0.55;;;;;;;12.17;100.00;99288.91;5060260;28;20055;-66
2023/10/31 00:58:29;;;;;;;0.90;0.80;;;;;;;12.12;100.00;99290.84;5055222;28;20028;-65
2023/10/31 01:00:54;;;;;;;1.38;0.80;;;;;;;12.09;100.00;99301.31;5056310;28;20044;-66
2023/10/31 01:03:20;;;;;;;1.23;0.80;;;;;;;12.08;100.00;99297.88;5056583;28;20227;-66
2023/10/31 01:05:45;;;;;;;2.25;0.82;;;;;;;12.06;100.00;99302.28;5057482;28;20052;-65
2023/10/31 01:08:11;;;;;;;1.48;0.70;;;;;;;12.02;100.00;99300.69;5055632;28;20021;-66
2023/10/31 01:10:36;;;;;;;1.25;0.70;;;;;;;11.98;100.00;99306.06;5050469;28;20410;-67
2023/10/31 01:13:02;;;;;;;2.88;0.70;;;;;;;11.93;100.00;99308.81;5056028;28;20037;-66
2023/10/31 01:15:27;;;;;;;1.75;0.70;;;;;;;11.87;100.00;99311.66;5057093;28;20033;-66
2023/10/31 01:17:52;;;;;;;1.27;0.70;;;;;;;11.83;100.00;99310.91;5051511;28;20701;-65
2023/10/31 01:20:18;;;;;;;0.60;0.60;;;;;;;11.78;100.00;99307.63;5049981;28;20123;-65
2023/10/31 01:22:43;;;;;;;2.90;0.80;;;;;;;11.70;100.00;99319.16;5058403;28;20806;-65
2023/10/31 01:25:09;;;;;;;1.25;0.60;;;;;;;11.63;100.00;99323.75;5035735;28;20666;-65
2023/10/31 01:27:34;;;;;;;0.88;0.50;;;;;;;11.58;100.00;99324.78;5044474;28;20447;-65
2023/10/31 01:30:00;;;;;;;2.38;0.60;;;;;;;11.53;100.00;99324.09;5058045;28;20456;-65
2023/10/31 01:32:25;;;;;;;2.28;0.90;;;;;;;11.50;100.00;99316.44;5058858;28;20036;-66
2023/10/31 01:34:51;;;;;;;1.90;0.65;;;;;;;11.42;100.00;99321.03;5051462;28;20573;-65
2023/10/31 01:37:19;;;;;;;2.65;0.90;;;;;;;11.38;100.00;99317.69;5053616;28;20033;-65
2023/10/31 01:39:44;;;;;;;1.17;0.65;;;;;;;11.31;100.00;99327.41;5050356;28;20078;-65
2023/10/31 01:42:10;;;;;;;1.70;0.85;;;;;;;11.27;100.00;99331.00;5063317;28;20425;-65
2023/10/31 01:44:35;;;;;;;2.45;1.13;;;;;;;11.24;100.00;99333.69;5063138;28;20032;-64
2023/10/31 01:47:00;;;;;;;1.83;0.65;;;;;;;11.20;100.00;99328.66;5063932;28;20039;-66
2023/10/31 01:49:26;;;;;;;1.88;0.85;;;;;;;11.15;100.00;99325.41;5042936;28;20058;-65
2023/10/31 01:51:52;;;;;;;2.67;0.95;;;;;;;11.07;100.00;99328.22;5059537;28;20074;-65
2023/10/31 01:54:17;;;;;;;1.05;0.50;;;;;;;10.99;100.00;99334.53;5056948;28;20041;-65
2023/10/31 01:56:44;;;;;;;0.60;0.60;;;;;;;10.91;100.00;99332.22;5058935;28;20036;-65
2023/10/31 01:59:09;;;;;;;4.13;0.82;;;;;;;10.83;100.00;99336.81;5038652;28;20036;-65
2023/10/31 02:01:40;;;;;;;1.95;0.90;;;;;;;10.71;100.00;99335.44;5053723;28;20464;-65
2023/10/31 02:04:05;;;;;;;1.25;0.80;;;;;;;10.63;100.00;99326.22;5062077;28;20064;-65
2023/10/31 02:06:31;;;;;;;2.30;0.75;;;;;;;10.60;100.00;99316.00;5057102;28;20155;-65
2023/10/31 02:08:57;;;;;;;1.88;0.70;;;;;;;10.53;100.00;99328.28;5054748;28;20097;-65
2023/10/31 02:11:22;;;;;;;1.38;0.85;;;;;;;10.47;100.00;99327.63;5062263;28;20097;-65
2023/10/31 02:13:47;;;;;;;1.83;0.88;;;;;;;10.40;100.00;99326.09;5055033;28;20087;-65
2023/10/31 02:16:13;;;;;;;1.85;0.90;;;;;;;10.35;100.00;99326.25;5052708;28;20033;-65
2023/10/31 02:18:38;;;;;;;3.47;1.00;;;;;;;10.30;100.00;99325.53;5053546;28;20466;-68
2023/10/31 02:21:04;;;;;;;2.05;0.90;;;;;;;10.29;100.00;99328.19;5056297;28;20503;-66
2023/10/31 02:23:30;;;;;;;1.42;0.75;;;;;;;10.25;100.00;99337.75;5064239;28;20035;-66
2023/10/31 02:25:55;;;;;;;2.60;0.80;;;;;;;10.21;100.00;99331.81;5063708;28;20060;-65
2023/10/31 02:28:21;;;;;;;3.67;1.38;;;;;;;10.21;100.00;99330.97;5056668;28;20071;-65
2023/10/31 02:30:46;;;;;;;3.63;1.08;;;;;;;10.19;100.00;99330.19;5065169;28;20093;-66
2023/10/31 02:33:12;;;;;;;4.45;1.05;;;;;;;10.14;100.00;99329.47;5063959;28;20048;-66
2023/10/31 02:35:37;;;;;;;2.95;1.00;;;;;;;10.08;100.00;99332.25;5053149;28;20028;-64
2023/10/31 02:38:02;;;;;;;2.45;0.80;;;;;;;10.01;100.00;99338.47;5055889;28;20713;-66
2023/10/31 02:40:28;;;;;;;6.05;1.00;;;;;;;9.90;100.00;99335.34;5058152;28;21230;-65
2023/10/31 02:42:54;;;;;;;3.83;1.00;;;;;;;9.83;100.00;99341.56;5057014;28;20047;-62
2023/10/31 02:45:19;;;;;;;3.15;0.95;;;;;;;9.77;100.00;99342.56;5057657;28;20042;-63
2023/10/31 02:47:45;;;;;;;4.50;0.90;;;;;;;9.72;100.00;99349.59;5063750;28;20032;-62
2023/10/31 02:50:10;;;;;;;2.10;0.98;;;;;;;9.66;100.00;99353.22;5055988;28;20035;-65
2023/10/31 02:52:36;;;;;;;3.28;1.17;;;;;;;9.62;100.00;99353.31;5042804;28;20183;-62
2023/10/31 02:55:01;;;;;;;2.55;1.10;;;;;;;9.58;100.00;99355.13;5060251;28;20722;-62
2023/10/31 02:57:27;;;;;;;2.63;1.25;;;;;;;9.55;100.00;99354.34;5064310;28;20059;-64
2023/10/31 02:59:52;;;;;;;5.50;1.00;;;;;;;9.55;100.00;99356.94;5067663;28;20037;-62
2023/10/31 03:02:18;;;;;;;3.38;1.55;;;;;;;9.57;100.00;99356.03;5065680;28;20031;-62
2023/10/31 03:04:43;;;;;;;1.38;0.93;;;;;;;9.60;100.00;99357.69;5061780;28;20865;-62
2023/10/31 03:07:08;;;;;;;1.75;0.80;;;;;;;9.64;100.00;99357.53;5059029;28;20039;-62
2023/10/31 03:09:34;;;;;;;2.35;0.90;;;;;;;9.68;100.00;99358.31;5065886;28;20040;-62
2023/10/31 03:11:59;;;;;;;3.42;1.05;;;;;;;9.71;100.00;99357.38;5072367;28;20031;-62
2023/10/31 03:14:25;;;;;;;2.40;1.08;;;;;;;9.76;100.00;99358.13;5046252;28;20107;-62
2023/10/31 03:16:51;;;;;;;3.15;1.00;;;;;;;9.84;100.00;99361.31;5042127;28;20120;-62
2023/10/31 03:19:16;;;;;;;0.93;0.70;;;;;;;9.90;100.00;99362.00;5060897;28;20403;-62
2023/10/31 03:21:41;;;;;;;1.65;1.02;;;;;;;9.95;100.00;99348.94;5064398;28;20044;-62
2023/10/31 03:24:07;;;;;;;2.88;0.80;;;;;;;9.99;100.00;99356.59;5070000;28;20403;-61
2023/10/31 03:26:32;;;;;;;2.53;1.00;;;;;;;10.02;100.00;99353.06;5058403;28;20035;-62
2023/10/31 03:28:58;;;;;;;2.33;0.80;;;;;;;10.05;100.00;99361.56;5065912;28;20043;-62
2023/10/31 03:31:24;;;;;;;3.35;1.20;;;;;;;10.05;100.00;99353.81;5063924;28;20053;-62
2023/10/31 03:33:49;;;;;;;3.10;0.90;;;;;;;10.08;100.00;99358.91;5054842;28;20741;-62
2023/10/31 03:36:15;;;;;;;2.13;1.17;;;;;;;10.09;100.00;99360.56;5056531;28;20041;-61
2023/10/31 03:38:40;;;;;;;4.20;1.10;;;;;;;10.14;100.00;99365.63;5063433;28;20020;-62
2023/10/31 03:41:06;;;;;;;4.15;1.25;;;;;;;10.18;100.00;99369.78;5066146;28;20068;-62
2023/10/31 03:43:32;;;;;;;4.80;1.65;;;;;;;10.23;100.00;99375.69;5069295;28;20033;-62
2023/10/31 03:45:57;;;;;;;4.82;1.17;;;;;;;10.29;100.00;99379.81;5060879;28;20037;-62
2023/10/31 03:48:22;;;;;;;4.47;1.42;;;;;;;10.34;100.00;99385.69;5064565;28;20087;-61
2023/10/31 03:50:49;;;;;;;2.17;1.17;;;;;;;10.36;100.00;99386.47;5065382;28;20135;-61
2023/10/31 03:53:15;;;;;;;5.45;1.25;;;;;;;10.40;100.00;99390.69;5065041;28;20040;-62
2023/10/31 03:55:40;;;;;;;8.95;1.90;;;;;;;10.44;100.00;99393.13;5065259;28;20127;-62
2023/10/31 03:58:06;;;;;;;4.03;1.20;;;;;;;10.51;100.00;99397.22;5060283;28;20036;-62
2023/10/31 04:00:31;;;;;;;5.57;1.95;;;;;;;10.54;100.00;99393.69;5053477;28;20046;-62
2023/10/31 04:02:56;;;;;;;5.22;1.85;;;;;;;10.59;100.00;99397.84;5038963;28;20050;-62
2023/10/31 04:05:22;;;;;;;4.05;1.80;;;;;;;10.64;100.00;99395.13;5060123;28;20056;-61
2023/10/31 04:07:49;;;;;;;4.18;2.10;;;;;;;10.66;100.00;99393.31;5053663;28;20409;-61
2023/10/31 04:10:15;;;;;;;3.33;2.22;;;;;;;10.68;100.00;99399.31;5063624;28;21120;-65
2023/10/31 04:12:41;;;;;;;4.88;2.75;;;;;;;10.72;100.00;99406.06;5056061;28;20036;-65
2023/10/31 04:15:07;;;;;;;3.95;2.00;;;;;;;10.73;100.00;99408.59;5060065;28;20029;-65
2023/10/31 04:17:35;;;;;;;3.55;1.80;;;;;;;10.78;100.00;99408.44;5060457;28;20119;-65
2023/10/31 04:20:02;;;;;;;5.20;1.98;;;;;;;10.83;100.00;99411.75;5055536;28;20074;-66
2023/10/31 04:22:27;;;;;;;4.60;2.05;;;;;;;10.84;100.00;99415.16;5054805;28;20051;-65
2023/10/31 04:24:52;;;;;;;2.75;1.65;;;;;;;10.86;100.00;99411.63;5054114;28;20044;-65
2023/10/31 04:27:18;;;;;;;2.67;1.55;;;;;;;10.87;100.00;99418.50;5057111;28;20079;-66
2023/10/31 04:29:44;;;;;;;5.75;1.88;;;;;;;10.88;100.00;99421.94;5049954;28;20025;-65
2023/10/31 04:32:10;;;;;;;3.40;1.65;;;;;;;10.90;100.00;99418.41;5056087;28;20056;-66
2023/10/31 04:34:35;;;;;;;4.20;1.77;;;;;;;10.92;100.00;99421.78;5055452;28;20039;-66
2023/10/31 04:37:01;;;;;;;2.83;1.65;;;;;;;10.96;100.00;99433.72;5053877;28;20712;-66
2023/10/31 04:39:27;;;;;;;4.50;1.70;;;;;;;10.97;100.00;99439.75;5050423;28;20067;-66
2023/10/31 04:41:52;;;;;;;6.72;1.40;;;;;;;11.01;100.00;99437.00;5043497;28;20029;-66
2023/10/31 04:44:17;;;;;;;1.70;1.10;;;;;;;11.04;100.00;99434.34;5051393;28;20035;-66
2023/10/31 04:46:43;;;;;;;3.00;1.35;;;;;;;11.06;100.00;99432.56;5056260;28;20491;-66
2023/10/31 04:49:09;;;;;;;2.20;1.30;;;;;;;11.10;100.00;99441.06;5052925;28;20032;-66
2023/10/31 04:51:35;;;;;;;3.70;1.20;;;;;;;11.14;100.00;99440.06;5039666;28;20178;-66
2023/10/31 04:54:01;;;;;;;1.60;0.90;;;;;;;11.18;100.00;99436.50;5057711;28;20091;-66
2023/10/31 04:56:26;;;;;;;2.03;1.08;;;;;;;11.18;100.00;99441.66;5052518;28;20509;-66
2023/10/31 04:58:52;;;;;;;2.03;1.00;;;;;;;11.19;100.00;99446.78;5058818;28;20055;-65
2023/10/31 05:01:19;;;;;;;3.53;1.05;;;;;;;11.20;100.00;99448.47;5060200;28;20040;-66
2023/10/31 05:03:44;;;;;;;1.30;0.90;;;;;;;11.22;100.00;99444.09;5055286;28;20048;-66
2023/10/31 05:06:10;;;;;;;0.80;0.75;;;;;;;11.21;100.00;99442.44;5055133;28;20039;-66
2023/10/31 05:08:35;;;;;;;1.65;0.70;;;;;;;11.21;100.00;99447.59;5057828;28;20067;-66
2023/10/31 05:11:00;;;;;;;1.50;0.70;;;;;;;11.21;100.00;99446.75;5059676;28;20135;-68
2023/10/31 05:13:26;;;;;;;1.13;0.60;;;;;;;11.24;100.00;99439.75;5056699;28;20690;-66
2023/10/31 05:15:51;;;;;;;0.93;0.65;;;;;;;11.29;100.00;99445.59;5058942;28;20044;-66
2023/10/31 05:18:17;;;;;;;1.02;0.50;;;;;;;11.34;100.00;99446.28;5054711;28;20043;-66
2023/10/31 05:20:43;;;;;;;1.67;0.60;;;;;;;11.38;100.00;99441.88;5056816;28;20028;-66
2023/10/31 05:23:08;;;;;;;1.98;0.63;;;;;;;11.39;100.00;99442.72;5042782;28;20535;-65
2023/10/31 05:25:34;;;;;;;2.92;0.60;;;;;;;11.33;100.00;99442.03;5057875;28;20055;-67
2023/10/31 05:28:00;;;;;;;0.80;0.70;;;;;;;11.33;100.00;99449.78;5060714;28;20076;-67
2023/10/31 05:30:26;;;;;;;0.60;0.55;;;;;;;11.28;100.00;99453.41;5063467;28;20043;-66
2023/10/31 05:32:51;;;;;;;0.63;0.40;;;;;;;11.25;100.00;99461.25;5044290;28;20647;-66
2023/10/31 05:35:17;;;;;;;1.05;0.80;;;;;;;11.21;100.00;99462.28;5061461;28;20036;-66
2023/10/31 05:37:43;;;;;;;1.70;1.00;;;;;;;11.17;100.00;99460.66;5066856;28;20135;-66
2023/10/31 05:40:09;;;;;;;1.50;0.65;;;;;;;11.18;100.00;99470.13;5060851;28;20114;-65
2023/10/31 05:42:34;;;;;;;0.68;0.68;;;;;;;11.21;100.00;99472.63;5054726;28;20036;-66
2023/10/31 05:44:59;;;;;;;2.40;0.90;;;;;;;11.20;100.00;99473.50;5056847;28;20068;-65
2023/10/31 05:47:25;;;;;;;1.42;1.00;;;;;;;11.21;100.00;99478.63;5061111;28;20059;-61
2023/10/31 05:49:50;;;;;;;1.80;0.70;;;;;;;11.20;100.00;99478.66;5053152;28;20142;-61
2023/10/31 05:52:16;;;;;;;0.85;0.80;;;;;;;11.17;100.00;99479.63;5062597;28;20162;-61
2023/10/31 05:54:41;;;;;;;2.55;0.80;;;;;;;11.20;100.00;99486.44;5056655;28;20056;-61
2023/10/31 05:57:06;;;;;;;0.93;0.70;;;;;;;11.20;100.00;99491.59;5056607;28;20537;-61
2023/10/31 05:59:32;;;;;;;2.28;1.00;;;;;;;11.17;100.00;99504.63;5053244;28;20036;-61
2023/10/31 06:01:58;;;;;;;1.98;0.95;;;;;;;11.16;100.00;99506.38;5058744;28;20108;-61
2023/10/31 06:04:24;;;;;;;1.77;0.95;;;;;;;11.22;100.00;99508.75;5053211;28;20040;-61
2023/10/31 06:06:50;;;;;;;1.20;0.73;;;;;;;11.25;100.00;99511.25;5054040;28;20041;-61
2023/10/31 06:09:15;;;;;;;0.90;0.70;;;;;;;11.32;100.00;99509.31;5051769;28;20160;-62
2023/10/31 06:11:44;;;;;;;2.17;1.00;;;;;;;11.34;100.00;99510.97;5051360;28;20029;-62
2023/10/31 06:14:11;;;;;;;0.93;0.70;;;;;;;11.41;99.75;99521.13;5049367;28;20058;-62
2023/10/31 06:16:41;;;;;;;1.33;1.00;;;;;;;11.41;99.30;99516.81;5051085;28;20040;-62
2023/10/31 06:19:07;;;;;;;1.85;1.05;;;;;;;11.42;99.25;99518.50;5053836;28;20128;-63
2023/10/31 06:21:32;;;;;;;1.73;1.10;;;;;;;11.44;98.85;99524.50;5053250;28;20214;-63
2023/10/31 06:23:57;;;;;;;1.42;0.90;;;;;;;11.43;99.13;99519.31;5054677;28;20037;-63
2023/10/31 06:26:23;;;;;;;1.73;0.57;;;;;;;11.42;99.20;99517.66;5054098;28;20044;-62
2023/10/31 06:28:48;;;;;;;0.93;0.80;;;;;;;11.39;98.88;99513.44;5051302;28;20387;-62
2023/10/31 06:31:13;;;;;;;0.85;0.70;;;;;;;11.32;99.90;99515.34;5049542;28;20044;-62
2023/10/31 06:33:39;;;;;;;1.80;0.90;;;;;;;11.25;100.00;99513.84;5052193;28;20507;-62
2023/10/31 06:36:06;;;;;;;1.58;0.80;;;;;;;11.21;100.00;99524.34;5052393;28;20106;-63
2023/10/31 06:38:31;;;;;;;3.92;0.90;;;;;;;11.25;100.00;99523.34;5051699;28;20036;-64
2023/10/31 06:40:57;;;;;;;1.85;0.95;;;;;;;11.25;100.00;99538.84;5054686;28;20443;-62
2023/10/31 06:43:22;;;;;;;1.48;1.00;;;;;;;11.25;100.00;99544.88;5056517;28;21642;-62
2023/10/31 06:45:47;;;;;;;1.23;0.82;;;;;;;11.29;100.00;99550.81;5053915;28;20037;-63
2023/10/31 06:48:13;;;;;;;1.55;1.08;;;;;;;11.35;99.74;99554.06;5051515;28;20040;-62
2023/10/31 06:50:38;;;;;;;2.17;0.90;;;;;;;11.43;99.32;99561.59;5055704;28;20020;-63
2023/10/31 06:53:04;;;;;;;1.52;1.08;;;;;;;11.49;98.45;99571.75;5054187;28;20748;-62
2023/10/31 06:55:29;;;;;;;2.08;1.23;;;;;;;11.54;98.22;99572.50;5054095;28;20041;-63
2023/10/31 06:57:55;;;;;;;2.05;1.13;;;;;;;11.56;97.62;99578.47;5058547;28;20047;-63
2023/10/31 07:00:20;;;;;;;2.55;1.23;;;;;;;11.53;98.27;99578.56;5051521;28;20047;-63
2023/10/31 07:02:47;;;;;;;1.83;1.10;;;;;;;11.50;98.76;99581.22;5040115;28;20050;-63
2023/10/31 07:05:13;;;;;;;4.07;1.50;;;;;;;11.49;98.49;99583.84;5055515;28;20090;-63
2023/10/31 07:07:39;;;;;;;3.20;1.30;;;;;;;11.44;99.23;99583.16;5050168;28;20431;-63
2023/10/31 07:10:05;;;;;;;3.28;1.17;;;;;;;11.42;99.04;99582.34;5059739;28;20055;-62
2023/10/31 07:12:30;;;;;;;2.13;1.30;;;;;;;11.39;99.69;99595.38;5058960;28;20052;-64
2023/10/31 07:14:58;;;;;;;5.13;1.30;;;;;;;11.34;99.94;99596.34;5047071;28;20045;-64
2023/10/31 07:17:24;;;;;;;3.03;1.30;;;;;;;11.37;99.27;99597.16;5071795;28;20260;-64
2023/10/31 07:19:49;;;;;;;2.20;1.10;;;;;;;11.42;99.03;99595.28;5067271;28;20048;-64
2023/10/31 07:22:15;;;;;;;2.08;1.20;;;;;;;11.39;99.30;99603.13;5061485;28;20045;-64
2023/10/31 07:24:40;;;;;;;3.42;1.50;;;;;;;11.35;99.06;99610.13;5061293;28;20043;-64
2023/10/31 07:27:06;;;;;;;1.83;1.27;;;;;;;11.33;99.64;99607.59;5062997;28;20032;-63
2023/10/31 07:29:31;;;;;;;2.70;1.42;;;;;;;11.32;99.96;99607.63;5062017;28;20048;-64
2023/10/31 07:31:56;;;;;;;2.92;1.45;;;;;;;11.33;100.00;99606.75;5062326;28;20471;-64
2023/10/31 07:34:22;;;;;;;2.25;1.25;;;;;;;11.38;99.94;99610.03;5059550;28;20080;-63
2023/10/31 07:36:47;;;;;;;2.25;1.38;;;;;;;11.46;99.85;99608.09;5025495;28;20059;-63
2023/10/31 07:39:14;;;;;;;3.50;1.48;;;;;;;11.54;100.00;99623.41;5059666;28;20069;-64
2023/10/31 07:41:39;;;;;;;2.72;1.33;;;;;;;11.56;99.74;99624.19;5043133;28;20536;-64
2023/10/31 07:44:05;;;;;;;3.38;1.40;;;;;;;11.58;99.63;99633.59;5057878;28;20087;-63
2023/10/31 07:46:31;;;;;;;3.00;1.30;;;;;;;11.62;99.81;99639.53;5057202;28;20439;-63
2023/10/31 07:48:56;;;;;;;2.58;1.50;;;;;;;11.63;100.00;99638.66;5056717;28;20036;-61
2023/10/31 07:51:22;;;;;;;3.20;1.52;;;;;;;11.61;98.86;99630.06;5056099;28;20037;-65
2023/10/31 07:53:47;;;;;;;1.88;1.20;;;;;;;11.62;98.47;99627.44;5056020;28;20035;-64
2023/10/31 07:56:22;;;;;;;2.65;1.33;;;;;;;11.65;98.13;99635.13;5055969;28;20035;-61
2023/10/31 07:58:49;;;;;;;1.70;1.38;;;;;;;11.66;97.61;99629.03;5035161;28;20064;-61
2023/10/31 08:01:14;;;;;;;2.95;1.40;;;;;;;11.73;96.94;99632.28;5058311;28;20132;-61
2023/10/31 08:03:40;;;;;;;2.42;1.42;;;;;;;11.74;96.31;99636.56;5058637;28;20390;-61
2023/10/31 08:06:06;;;;;;;2.78;1.52;;;;;;;11.75;97.08;99646.84;5058541;28;20044;-65
2023/10/31 08:08:32;;;;;;;2.53;1.55;;;;;;;11.79;96.94;99645.88;5057418;28;20021;-64
2023/10/31 08:10:58;;;;;;;3.10;1.30;;;;;;;11.87;96.88;99651.66;5060604;28;20028;-65
2023/10/31 08:13:24;;;;;;;4.05;1.40;;;;;;;11.95;96.53;99654.03;5036190;28;20040;-66
2023/10/31 08:15:49;;;;;;;4.25;1.38;;;;;;;11.89;97.07;99656.81;5035612;28;20036;-65
2023/10/31 08:18:15;;;;;;;2.33;1.20;;;;;;;11.87;96.31;99656.84;5062962;28;20037;-67
2023/10/31 08:20:40;;;;;;;5.15;1.80;;;;;;;11.93;96.00;99658.38;5053560;28;20760;-65
2023/10/31 08:23:06;;;;;;;3.75;1.27;;;;;;;11.99;95.29;99655.59;5057185;28;20025;-66
2023/10/31 08:25:31;;;;;;;2.20;1.45;;;;;;;12.10;94.64;99650.94;5039642;28;20155;-65
2023/10/31 08:27:56;;;;;;;4.13;2.42;;;;;;;12.18;94.76;99658.47;5057486;28;20047;-63
2023/10/31 08:30:22;;;;;;;2.42;1.30;;;;;;;12.26;94.41;99662.50;5066083;28;20045;-63
2023/10/31 08:32:47;;;;;;;1.67;1.17;;;;;;;12.33;94.05;99666.59;5062900;28;20067;-63
2023/10/31 08:35:13;;;;;;;2.85;1.33;;;;;;;12.35;94.42;99671.69;5059727;28;20399;-64
2023/10/31 08:37:38;;;;;;;2.50;1.30;;;;;;;12.31;93.39;99662.34;5055154;28;20029;-63
2023/10/31 08:40:04;;;;;;;2.83;0.98;;;;;;;12.30;93.76;99674.47;5041048;28;20048;-63
2023/10/31 08:42:30;;;;;;;1.73;1.00;;;;;;;12.30;93.12;99671.00;5061534;28;20040;-63
2023/10/31 08:44:55;;;;;;;3.38;1.00;;;;;;;12.38;92.92;99674.19;5053299;28;20044;-63
2023/10/31 08:47:21;;;;;;;3.63;1.00;;;;;;;12.46;92.73;99686.00;5059684;28;20491;-63
2023/10/31 08:49:46;;;;;;;2.05;1.10;;;;;;;12.61;93.01;99687.25;5059980;28;20045;-63
2023/10/31 08:52:11;;;;;;;2.05;0.85;;;;;;;12.72;91.80;99687.72;5064083;28;20032;-63
2023/10/31 08:54:37;;;;;;;1.55;0.90;;;;;;;12.84;91.68;99689.91;5059851;28;20663;-64
2023/10/31 08:57:02;;;;;;;3.47;1.02;;;;;;;12.90;91.02;99694.03;5057990;28;20048;-63
2023/10/31 08:59:28;;;;;;;2.67;0.90;;;;;;;12.97;90.82;99701.53;5037546;28;20552;-64
2023/10/31 09:01:53;;;;;;;1.65;1.17;;;;;;;12.99;89.40;99694.59;5040779;28;20045;-63
2023/10/31 09:04:18;;;;;;;3.55;1.10;;;;;;;13.07;88.93;99689.13;5045211;28;20033;-63
2023/10/31 09:06:44;;;;;;;3.20;1.13;;;;;;;13.14;88.59;99702.72;5019433;28;21006;-61
2023/10/31 09:09:10;;;;;;;1.25;0.93;;;;;;;13.17;88.98;99707.81;5039666;28;20076;-61
2023/10/31 09:11:35;;;;;;;2.08;1.02;;;;;;;13.22;88.19;99703.28;5037999;28;20037;-61
2023/10/31 09:14:01;;;;;;;1.42;0.85;;;;;;;13.27;87.10;99702.22;5055632;28;20039;-61
2023/10/31 09:16:26;;;;;;;1.45;0.80;;;;;;;13.32;86.31;99696.88;5057312;28;20606;-62
2023/10/31 09:18:52;;;;;;;4.18;1.08;;;;;;;13.43;86.27;99700.78;5050092;28;20672;-62
2023/10/31 09:21:17;;;;;;;3.13;0.90;;;;;;;13.50;84.34;99688.41;5044906;28;20392;-62
2023/10/31 09:23:43;;;;;;;1.48;0.80;;;;;;;13.55;85.03;99710.72;5034227;28;20174;-63
2023/10/31 09:26:08;;;;;;;1.50;0.90;;;;;;;13.57;85.55;99715.81;5057153;28;20094;-62
2023/10/31 09:28:36;;;;;;;3.03;0.80;;;;;;;13.53;85.31;99717.69;5024175;28;20136;-63
2023/10/31 09:31:02;;;;;;;2.92;0.80;;;;;;;13.63;85.50;99725.97;5033612;28;20449;-62
2023/10/31 09:33:27;;;;;;;1.05;0.63;;;;;;;13.72;83.20;99704.00;5025565;28;20037;-62
2023/10/31 09:35:52;;;;;;;2.03;0.75;;;;;;;13.74;82.30;99694.44;5049642;28;20044;-62
2023/10/31 09:38:17;;;;;;;1.90;0.90;;;;;;;13.83;83.40;99720.06;5052427;28;20677;-62
2023/10/31 09:40:43;;;;;;;1.25;0.70;;;;;;;13.95;84.36;99730.81;5051786;28;20044;-62
2023/10/31 09:43:09;;;;;;;1.25;1.00;;;;;;;14.01;83.39;99727.13;5054921;28;20041;-62
2023/10/31 09:45:34;;;;;;;1.40;0.77;;;;;;;14.04;83.27;99729.59;5048122;28;20071;-62
2023/10/31 09:48:02;;;;;;;2.08;0.80;;;;;;;14.01;82.49;99719.31;5058428;28;20040;-62
2023/10/31 09:50:29;;;;;;;2.05;0.80;;;;;;;13.99;81.80;99724.59;5056931;28;20094;-62
2023/10/31 09:52:56;;;;;;;2.80;1.30;;;;;;;14.00;82.64;99738.44;5059560;28;20797;-62
2023/10/31 09:55:22;;;;;;;4.78;1.10;;;;;;;13.96;82.84;99745.50;5051796;28;20036;-63
2023/10/31 09:57:47;;;;;;;1.60;0.80;;;;;;;13.91;82.30;99741.38;5057735;28;20787;-62
2023/10/31 10:00:13;;;;;;;1.60;0.75;;;;;;;13.93;82.52;99753.41;5046358;28;20071;-62
2023/10/31 10:02:38;;;;;;;2.05;0.70;;;;;;;13.97;81.56;99748.94;5055363;28;20058;-61
2023/10/31 10:05:05;;;;;;;2.70;0.80;;;;;;;14.04;81.62;99760.78;5055586;28;20434;-66
2023/10/31 10:07:34;;;;;;;2.20;0.80;;;;;;;14.12;81.74;99756.16;5053993;28;20032;-62
2023/10/31 10:10:00;;;;;;;1.77;0.55;;;;;;;14.17;80.40;99736.03;5058100;28;20419;-62
2023/10/31 10:12:26;;;;;;;2.45;1.02;;;;;;;14.27;80.21;99752.09;5060360;28;20047;-62
2023/10/31 10:14:52;;;;;;;2.33;1.05;;;;;;;14.31;79.94;99748.47;5056579;28;20048;-62
2023/10/31 10:17:21;;;;;;;4.10;0.85;;;;;;;14.30;78.05;99716.44;5054245;28;20122;-62
2023/10/31 10:19:46;;;;;;;1.42;1.02;;;;;;;14.29;76.71;99708.69;5050449;28;20057;-62
2023/10/31 10:22:14;;;;;;;3.42;0.93;;;;;;;14.27;78.48;99737.38;5055497;28;20036;-62
2023/10/31 10:24:40;;;;;;;1.02;0.40;;;;;;;14.31;76.68;99715.53;5056992;28;20064;-62
2023/10/31 10:27:08;;;;;;;1.33;0.38;;;;;;;14.36;75.76;99703.19;5054050;28;20033;-62
2023/10/31 10:29:34;;;;;;;4.20;0.70;;;;;;;14.37;75.65;99714.41;5052257;28;20168;-62
2023/10/31 10:31:59;;;;;;;1.50;0.40;;;;;;;14.33;74.98;99705.06;5053362;28;20460;-62
2023/10/31 10:34:24;;;;;;;5.50;0.82;;;;;;;14.40;75.63;99716.94;5050375;28;20040;-62
2023/10/31 10:36:51;;;;;;;0.93;0.40;;;;;;;14.45;75.80;99730.63;5052839;28;20873;-62
2023/10/31 10:39:23;;;;;;;0.77;0.50;;;;;;;14.50;75.30;99729.50;5035816;28;20044;-62
2023/10/31 10:41:55;;;;;;;0.40;0.30;;;;;;;14.54;74.62;99722.44;5045743;28;20124;-61
2023/10/31 10:44:30;;;;;;;1.77;0.50;;;;;;;14.54;75.83;99735.44;5058787;28;20032;-61
2023/10/31 10:46:56;;;;;;;1.05;0.40;;;;;;;14.53;75.20;99721.59;5056864;28;20698;-61
2023/10/31 10:49:25;;;;;;;2.92;0.60;;;;;;;14.56;74.28;99720.63;5057107;28;20034;-61
2023/10/31 10:52:01;;;;;;;1.27;0.50;;;;;;;14.59;74.19;99710.94;5061799;28;20059;-62
2023/10/31 10:54:46;;;;;;;1.25;0.52;;;;;;;14.60;73.11;99697.00;5058465;28;20039;-62
2023/10/31 10:57:18;;;;;;;0.95;0.47;;;;;;;14.63;73.80;99716.84;5063032;28;20507;-61
2023/10/31 10:59:53;;;;;;;0.68;0.40;;;;;;;14.71;74.34;99732.13;5058113;28;20028;-61
2023/10/31 11:02:19;;;;;;;3.00;0.80;;;;;;;14.72;74.13;99734.69;5059853;28;20108;-65
2023/10/31 11:04:46;;;;;;;1.90;0.50;;;;;;;14.80;73.77;99727.41;5060685;28;20448;-66
2023/10/31 11:07:12;;;;;;;2.67;0.60;;;;;;;14.89;73.79;99719.22;5061084;28;20058;-66
2023/10/31 11:09:39;;;;;;;1.33;0.60;;;;;;;14.91;74.01;99729.53;5061083;28;20569;-66
2023/10/31 11:12:06;;;;;;;0.77;0.60;;;;;;;14.91;73.88;99729.53;5062636;28;20411;-66
2023/10/31 11:14:33;;;;;;;2.20;0.60;;;;;;;15.00;73.12;99721.34;5054212;28;20039;-64
2023/10/31 11:17:05;;;;;;;1.92;0.80;;;;;;;15.01;73.03;99707.44;5058030;28;20040;-66
2023/10/31 11:19:33;;;;;;;2.42;0.98;;;;;;;15.03;72.67;99700.38;5053517;28;20044;-66
2023/10/31 11:22:00;;;;;;;2.17;0.80;;;;;;;15.03;72.94;99716.84;5058350;28;20048;-66